Josephville, Missouri
Current Conditions -  °F | °C
As of 6:54 PM on Monday 26 Jan 2015 (Local Time) from KSUS Reporting Station
Clear Clear  
Wind Chill: 29°   Ceiling: Unl
Heat Index: 33°   Visibility: 10mi
Dew Point: 29°   Wind: 5mph
Humidity: 85%   Direction: 70°ENE
Pressure: 29.9"   Gusts: NA
Location:  38.7993°N, 90.8471°W
Report Text: KSUS 270054Z 07004KT 10SM CLR 01/M02 A2990 RMK AO2 SLP134 T00061017
Loading
Personal Weather Stations






























Interactive Weather Map New forecast layout! Learn more

10-Day Weather Forecast

Advertisements
Track Severe Weather on mobile